sensor_id;sensor_type;location;lat;lon;timestamp;temperature;humidity
29007;DHT22;16104;48.642;9.008;2023-03-23T00:02:35;15.40;44.60
29007;DHT22;16104;48.642;9.008;2023-03-23T00:07:30;15.40;44.60
29007;DHT22;16104;48.642;9.008;2023-03-23T00:12:27;15.40;44.70
29007;DHT22;16104;48.642;9.008;2023-03-23T00:17:30;15.40;44.90
29007;DHT22;16104;48.642;9.008;2023-03-23T00:22:28;15.40;45.00
29007;DHT22;16104;48.642;9.008;2023-03-23T00:27:23;15.40;44.90
29007;DHT22;16104;48.642;9.008;2023-03-23T00:32:21;15.40;45.00
29007;DHT22;16104;48.642;9.008;2023-03-23T00:37:22;15.40;45.00
29007;DHT22;16104;48.642;9.008;2023-03-23T00:42:18;15.40;45.00
29007;DHT22;16104;48.642;9.008;2023-03-23T00:47:13;15.30;44.80
29007;DHT22;16104;48.642;9.008;2023-03-23T00:52:09;15.30;44.90
29007;DHT22;16104;48.642;9.008;2023-03-23T00:57:05;15.30;45.00
29007;DHT22;16104;48.642;9.008;2023-03-23T02:03:06;15.00;46.20
29007;DHT22;16104;48.642;9.008;2023-03-23T02:08:04;15.00;46.50
29007;DHT22;16104;48.642;9.008;2023-03-23T02:13:05;15.00;46.70
29007;DHT22;16104;48.642;9.008;2023-03-23T03:03:49;15.20;46.50
29007;DHT22;16104;48.642;9.008;2023-03-23T03:08:52;15.20;46.50
29007;DHT22;16104;48.642;9.008;2023-03-23T03:14:00;15.20;46.70
29007;DHT22;16104;48.642;9.008;2023-03-23T04:04:47;15.30;47.20
29007;DHT22;16104;48.642;9.008;2023-03-23T04:09:44;15.30;47.20
29007;DHT22;16104;48.642;9.008;2023-03-23T04:14:41;15.40;47.20
29007;DHT22;16104;48.642;9.008;2023-03-23T04:19:37;15.40;47.30
29007;DHT22;16104;48.642;9.008;2023-03-23T04:24:33;15.40;47.40
29007;DHT22;16104;48.642;9.008;2023-03-23T04:29:28;15.40;47.40
29007;DHT22;16104;48.642;9.008;2023-03-23T04:34:25;15.40;47.30
29007;DHT22;16104;48.642;9.008;2023-03-23T04:39:20;15.40;47.40
29007;DHT22;16104;48.642;9.008;2023-03-23T04:44:16;15.50;47.30
29007;DHT22;16104;48.642;9.008;2023-03-23T04:49:13;15.40;47.20
29007;DHT22;16104;48.642;9.008;2023-03-23T04:54:09;15.50;47.30
29007;DHT22;16104;48.642;9.008;2023-03-23T04:59:05;15.50;47.20
29007;DHT22;16104;48.642;9.008;2023-03-23T05:04:01;15.50;47.20
29007;DHT22;16104;48.642;9.008;2023-03-23T05:08:57;15.50;47.30
29007;DHT22;16104;48.642;9.008;2023-03-23T05:13:53;15.50;47.40
29007;DHT22;16104;48.642;9.008;2023-03-23T05:18:48;15.50;47.30
29007;DHT22;16104;48.642;9.008;2023-03-23T05:23:44;15.50;47.20
29007;DHT22;16104;48.642;9.008;2023-03-23T05:28:39;15.50;47.20
29007;DHT22;16104;48.642;9.008;2023-03-23T05:33:37;15.50;47.30
29007;DHT22;16104;48.642;9.008;2023-03-23T05:38:33;15.60;47.40
29007;DHT22;16104;48.642;9.008;2023-03-23T05:43:28;15.60;47.20
29007;DHT22;16104;48.642;9.008;2023-03-23T05:48:24;15.60;47.10
29007;DHT22;16104;48.642;9.008;2023-03-23T05:53:20;15.70;47.20
29007;DHT22;16104;48.642;9.008;2023-03-23T05:58:15;15.70;47.00
29007;DHT22;16104;48.642;9.008;2023-03-23T06:03:11;15.80;47.10
29007;DHT22;16104;48.642;9.008;2023-03-23T06:08:07;15.80;47.00
29007;DHT22;16104;48.642;9.008;2023-03-23T06:13:03;15.90;47.10
29007;DHT22;16104;48.642;9.008;2023-03-23T06:18:01;15.90;47.00
29007;DHT22;16104;48.642;9.008;2023-03-23T06:22:58;16.00;47.10
29007;DHT22;16104;48.642;9.008;2023-03-23T06:27:53;16.00;47.10
29007;DHT22;16104;48.642;9.008;2023-03-23T06:32:51;16.00;47.10
29007;DHT22;16104;48.642;9.008;2023-03-23T06:37:46;16.10;47.10
29007;DHT22;16104;48.642;9.008;2023-03-23T06:42:42;16.10;47.10
29007;DHT22;16104;48.642;9.008;2023-03-23T06:47:37;16.10;47.10
29007;DHT22;16104;48.642;9.008;2023-03-23T06:52:34;16.10;47.10
29007;DHT22;16104;48.642;9.008;2023-03-23T06:57:30;16.10;47.10
29007;DHT22;16104;48.642;9.008;2023-03-23T07:02:25;16.20;47.20
29007;DHT22;16104;48.642;9.008;2023-03-23T07:07:21;16.20;47.30
29007;DHT22;16104;48.642;9.008;2023-03-23T07:12:17;16.20;47.20
29007;DHT22;16104;48.642;9.008;2023-03-23T07:17:12;16.30;47.20
29007;DHT22;16104;48.642;9.008;2023-03-23T07:22:08;16.30;47.20
29007;DHT22;16104;48.642;9.008;2023-03-23T07:27:04;16.30;47.10
29007;DHT22;16104;48.642;9.008;2023-03-23T07:32:01;16.30;47.20
29007;DHT22;16104;48.642;9.008;2023-03-23T07:36:57;16.40;47.30
29007;DHT22;16104;48.642;9.008;2023-03-23T07:41:52;16.40;47.30
29007;DHT22;16104;48.642;9.008;2023-03-23T07:46:48;16.40;47.40
29007;DHT22;16104;48.642;9.008;2023-03-23T07:51:44;16.40;48.40
29007;DHT22;16104;48.642;9.008;2023-03-23T07:56:39;16.40;47.80
29007;DHT22;16104;48.642;9.008;2023-03-23T08:01:35;16.50;47.90
29007;DHT22;16104;48.642;9.008;2023-03-23T08:06:32;16.50;48.10
29007;DHT22;16104;48.642;9.008;2023-03-23T08:11:28;16.60;48.10
29007;DHT22;16104;48.642;9.008;2023-03-23T08:16:24;16.70;48.20
29007;DHT22;16104;48.642;9.008;2023-03-23T08:21:20;16.70;48.40
29007;DHT22;16104;48.642;9.008;2023-03-23T08:26:17;16.80;48.60
29007;DHT22;16104;48.642;9.008;2023-03-23T08:31:14;16.90;48.70
29007;DHT22;16104;48.642;9.008;2023-03-23T08:36:10;17.00;48.80
29007;DHT22;16104;48.642;9.008;2023-03-23T08:41:06;17.10;48.70
29007;DHT22;16104;48.642;9.008;2023-03-23T08:46:02;17.20;49.00
29007;DHT22;16104;48.642;9.008;2023-03-23T08:51:07;17.20;48.70
29007;DHT22;16104;48.642;9.008;2023-03-23T08:56:09;17.20;48.90
29007;DHT22;16104;48.642;9.008;2023-03-23T09:01:06;17.30;49.30
29007;DHT22;16104;48.642;9.008;2023-03-23T09:06:04;17.30;49.20
29007;DHT22;16104;48.642;9.008;2023-03-23T09:11:06;17.40;49.20
29007;DHT22;16104;48.642;9.008;2023-03-23T09:16:03;17.40;49.40
29007;DHT22;16104;48.642;9.008;2023-03-23T09:21:00;17.50;49.50
29007;DHT22;16104;48.642;9.008;2023-03-23T09:25:56;17.50;49.40
29007;DHT22;16104;48.642;9.008;2023-03-23T09:30:55;17.60;49.30
29007;DHT22;16104;48.642;9.008;2023-03-23T09:35:52;17.70;49.40
29007;DHT22;16104;48.642;9.008;2023-03-23T09:40:53;17.80;49.40
29007;DHT22;16104;48.642;9.008;2023-03-23T09:46:04;17.80;49.30
29007;DHT22;16104;48.642;9.008;2023-03-23T09:51:17;17.80;49.60
29007;DHT22;16104;48.642;9.008;2023-03-23T09:56:16;17.80;49.70
29007;DHT22;16104;48.642;9.008;2023-03-23T10:01:38;17.80;49.50
29007;DHT22;16104;48.642;9.008;2023-03-23T10:06:34;17.90;49.50
29007;DHT22;16104;48.642;9.008;2023-03-23T10:11:53;18.00;49.40
29007;DHT22;16104;48.642;9.008;2023-03-23T10:17:14;18.10;49.60
29007;DHT22;16104;48.642;9.008;2023-03-23T10:22:12;18.20;49.60
29007;DHT22;16104;48.642;9.008;2023-03-23T10:32:14;18.40;49.00
29007;DHT22;16104;48.642;9.008;2023-03-23T10:37:17;18.50;49.20
29007;DHT22;16104;48.642;9.008;2023-03-23T10:42:22;18.60;49.00
29007;DHT22;16104;48.642;9.008;2023-03-23T10:47:18;18.70;48.50
29007;DHT22;16104;48.642;9.008;2023-03-23T10:52:20;18.70;48.40
29007;DHT22;16104;48.642;9.008;2023-03-23T10:57:31;18.70;48.60
29007;DHT22;16104;48.642;9.008;2023-03-23T11:02:28;18.80;48.50
29007;DHT22;16104;48.642;9.008;2023-03-23T11:07:28;18.90;48.50
29007;DHT22;16104;48.642;9.008;2023-03-23T11:12:25;19.00;48.30
29007;DHT22;16104;48.642;9.008;2023-03-23T11:17:24;19.10;48.40
29007;DHT22;16104;48.642;9.008;2023-03-23T11:22:25;19.10;48.40
29007;DHT22;16104;48.642;9.008;2023-03-23T11:27:23;19.20;48.70
29007;DHT22;16104;48.642;9.008;2023-03-23T11:32:22;19.20;48.40
29007;DHT22;16104;48.642;9.008;2023-03-23T11:47:37;19.30;47.60
29007;DHT22;16104;48.642;9.008;2023-03-23T11:57:55;19.40;47.80
29007;DHT22;16104;48.642;9.008;2023-03-23T12:03:29;19.30;47.50
29007;DHT22;16104;48.642;9.008;2023-03-23T12:09:09;19.40;47.00
29007;DHT22;16104;48.642;9.008;2023-03-23T12:14:25;19.30;46.70
29007;DHT22;16104;48.642;9.008;2023-03-23T12:19:51;19.30;46.20
29007;DHT22;16104;48.642;9.008;2023-03-23T12:30:24;19.30;46.50
29007;DHT22;16104;48.642;9.008;2023-03-23T12:40:39;19.40;46.60
29007;DHT22;16104;48.642;9.008;2023-03-23T12:51:13;19.50;46.50
29007;DHT22;16104;48.642;9.008;2023-03-23T12:56:33;19.60;46.30
29007;DHT22;16104;48.642;9.008;2023-03-23T13:01:38;19.70;45.80
29007;DHT22;16104;48.642;9.008;2023-03-23T13:06:36;19.80;45.50
29007;DHT22;16104;48.642;9.008;2023-03-23T13:11:39;19.80;46.00
29007;DHT22;16104;48.642;9.008;2023-03-23T13:27:24;20.00;45.40
29007;DHT22;16104;48.642;9.008;2023-03-23T13:32:36;20.10;45.50
29007;DHT22;16104;48.642;9.008;2023-03-23T13:37:32;20.30;45.10
29007;DHT22;16104;48.642;9.008;2023-03-23T13:42:29;20.40;44.00
29007;DHT22;16104;48.642;9.008;2023-03-23T13:47:38;20.50;44.00
29007;DHT22;16104;48.642;9.008;2023-03-23T14:03:05;20.70;43.90
29007;DHT22;16104;48.642;9.008;2023-03-23T14:08:23;20.70;43.70
29007;DHT22;16104;48.642;9.008;2023-03-23T14:13:31;20.70;42.80
29007;DHT22;16104;48.642;9.008;2023-03-23T14:18:52;20.70;42.00
29007;DHT22;16104;48.642;9.008;2023-03-23T14:23:48;20.70;42.50
29007;DHT22;16104;48.642;9.008;2023-03-23T14:28:46;20.60;42.80
29007;DHT22;16104;48.642;9.008;2023-03-23T14:33:44;20.60;42.60
29007;DHT22;16104;48.642;9.008;2023-03-23T14:38:40;20.50;42.60
29007;DHT22;16104;48.642;9.008;2023-03-23T14:43:36;20.50;42.20
29007;DHT22;16104;48.642;9.008;2023-03-23T14:48:32;20.40;42.20
29007;DHT22;16104;48.642;9.008;2023-03-23T14:53:36;20.30;42.00
29007;DHT22;16104;48.642;9.008;2023-03-23T14:58:32;20.30;41.80
29007;DHT22;16104;48.642;9.008;2023-03-23T15:03:33;20.20;42.00
29007;DHT22;16104;48.642;9.008;2023-03-23T15:08:33;20.20;41.50
29007;DHT22;16104;48.642;9.008;2023-03-23T15:13:29;20.10;41.60
29007;DHT22;16104;48.642;9.008;2023-03-23T15:18:35;20.10;41.70
29007;DHT22;16104;48.642;9.008;2023-03-23T15:23:31;20.00;41.70
29007;DHT22;16104;48.642;9.008;2023-03-23T15:28:32;20.00;42.30
29007;DHT22;16104;48.642;9.008;2023-03-23T15:33:37;20.00;42.00
29007;DHT22;16104;48.642;9.008;2023-03-23T15:38:34;19.90;41.80
29007;DHT22;16104;48.642;9.008;2023-03-23T15:43:51;19.80;42.00
29007;DHT22;16104;48.642;9.008;2023-03-23T15:48:53;19.80;42.40
29007;DHT22;16104;48.642;9.008;2023-03-23T15:53:53;19.70;42.10
29007;DHT22;16104;48.642;9.008;2023-03-23T15:58:49;19.60;42.20
29007;DHT22;16104;48.642;9.008;2023-03-23T16:03:56;19.50;42.30
29007;DHT22;16104;48.642;9.008;2023-03-23T16:08:54;19.50;42.50
29007;DHT22;16104;48.642;9.008;2023-03-23T16:13:50;19.40;42.60
29007;DHT22;16104;48.642;9.008;2023-03-23T16:18:45;19.30;42.60
29007;DHT22;16104;48.642;9.008;2023-03-23T16:23:41;19.20;42.80
29007;DHT22;16104;48.642;9.008;2023-03-23T16:28:39;19.20;43.60
29007;DHT22;16104;48.642;9.008;2023-03-23T16:33:35;19.10;43.20
29007;DHT22;16104;48.642;9.008;2023-03-23T16:38:31;19.00;43.50
29007;DHT22;16104;48.642;9.008;2023-03-23T16:43:26;18.90;43.80
29007;DHT22;16104;48.642;9.008;2023-03-23T16:48:22;18.90;44.10
29007;DHT22;16104;48.642;9.008;2023-03-23T16:53:18;18.80;44.90
29007;DHT22;16104;48.642;9.008;2023-03-23T16:58:14;18.80;44.40
29007;DHT22;16104;48.642;9.008;2023-03-23T17:03:10;18.70;44.50
29007;DHT22;16104;48.642;9.008;2023-03-23T17:08:06;18.70;44.60
29007;DHT22;16104;48.642;9.008;2023-03-23T17:13:02;18.70;44.80
29007;DHT22;16104;48.642;9.008;2023-03-23T17:17:57;18.60;44.90
29007;DHT22;16104;48.642;9.008;2023-03-23T17:22:53;18.60;45.20
29007;DHT22;16104;48.642;9.008;2023-03-23T17:27:48;18.50;45.30
29007;DHT22;16104;48.642;9.008;2023-03-23T17:32:44;18.50;45.50
29007;DHT22;16104;48.642;9.008;2023-03-23T17:37:42;18.40;46.20
29007;DHT22;16104;48.642;9.008;2023-03-23T17:42:38;18.30;45.50
29007;DHT22;16104;48.642;9.008;2023-03-23T17:47:34;18.30;45.70
29007;DHT22;16104;48.642;9.008;2023-03-23T17:52:29;18.20;45.90
29007;DHT22;16104;48.642;9.008;2023-03-23T17:57:25;18.10;46.00
29007;DHT22;16104;48.642;9.008;2023-03-23T18:02:20;18.10;46.20
29007;DHT22;16104;48.642;9.008;2023-03-23T18:07:16;18.00;46.40
29007;DHT22;16104;48.642;9.008;2023-03-23T18:12:17;18.00;46.40
29007;DHT22;16104;48.642;9.008;2023-03-23T18:17:13;17.90;46.50
29007;DHT22;16104;48.642;9.008;2023-03-23T18:22:08;17.90;46.70
29007;DHT22;16104;48.642;9.008;2023-03-23T18:27:04;17.80;47.00
29007;DHT22;16104;48.642;9.008;2023-03-23T18:31:59;17.80;47.10
29007;DHT22;16104;48.642;9.008;2023-03-23T18:36:55;17.70;47.20
29007;DHT22;16104;48.642;9.008;2023-03-23T18:41:50;17.70;47.40
29007;DHT22;16104;48.642;9.008;2023-03-23T18:46:46;17.70;47.50
29007;DHT22;16104;48.642;9.008;2023-03-23T18:51:42;17.60;47.60
29007;DHT22;16104;48.642;9.008;2023-03-23T18:56:37;17.60;47.70
29007;DHT22;16104;48.642;9.008;2023-03-23T19:01:33;17.60;47.80
29007;DHT22;16104;48.642;9.008;2023-03-23T19:06:28;17.50;47.80
29007;DHT22;16104;48.642;9.008;2023-03-23T19:11:24;17.50;47.90
29007;DHT22;16104;48.642;9.008;2023-03-23T19:16:21;17.50;47.90
29007;DHT22;16104;48.642;9.008;2023-03-23T19:21:16;17.40;48.00
29007;DHT22;16104;48.642;9.008;2023-03-23T19:26:20;17.40;48.00
29007;DHT22;16104;48.642;9.008;2023-03-23T19:31:16;17.40;48.20
29007;DHT22;16104;48.642;9.008;2023-03-23T19:36:14;17.40;48.20
29007;DHT22;16104;48.642;9.008;2023-03-23T19:41:10;17.40;48.30
29007;DHT22;16104;48.642;9.008;2023-03-23T19:46:05;17.30;48.20
29007;DHT22;16104;48.642;9.008;2023-03-23T19:51:02;17.30;48.30
29007;DHT22;16104;48.642;9.008;2023-03-23T19:55:58;17.30;48.40
29007;DHT22;16104;48.642;9.008;2023-03-23T20:00:54;17.20;48.40
29007;DHT22;16104;48.642;9.008;2023-03-23T20:05:50;17.20;48.50
29007;DHT22;16104;48.642;9.008;2023-03-23T20:10:45;17.20;48.60
29007;DHT22;16104;48.642;9.008;2023-03-23T20:15:41;17.20;48.70
29007;DHT22;16104;48.642;9.008;2023-03-23T20:20:36;17.10;48.70
29007;DHT22;16104;48.642;9.008;2023-03-23T20:25:32;17.10;48.80
29007;DHT22;16104;48.642;9.008;2023-03-23T20:30:28;17.00;48.70
29007;DHT22;16104;48.642;9.008;2023-03-23T20:35:23;17.10;48.80
29007;DHT22;16104;48.642;9.008;2023-03-23T20:40:19;17.00;48.80
29007;DHT22;16104;48.642;9.008;2023-03-23T20:45:15;17.00;48.90
29007;DHT22;16104;48.642;9.008;2023-03-23T20:50:12;17.00;49.00
29007;DHT22;16104;48.642;9.008;2023-03-23T20:55:08;17.00;49.00
29007;DHT22;16104;48.642;9.008;2023-03-23T21:00:04;16.90;49.00
29007;DHT22;16104;48.642;9.008;2023-03-23T21:05:01;16.90;49.10
29007;DHT22;16104;48.642;9.008;2023-03-23T21:09:58;16.90;49.20
29007;DHT22;16104;48.642;9.008;2023-03-23T21:14:54;16.80;49.30
29007;DHT22;16104;48.642;9.008;2023-03-23T21:19:50;16.80;49.30
29007;DHT22;16104;48.642;9.008;2023-03-23T21:24:45;16.80;49.30
29007;DHT22;16104;48.642;9.008;2023-03-23T21:29:41;16.80;49.40
29007;DHT22;16104;48.642;9.008;2023-03-23T21:34:39;16.80;49.40
29007;DHT22;16104;48.642;9.008;2023-03-23T21:39:35;16.80;49.50
29007;DHT22;16104;48.642;9.008;2023-03-23T21:44:31;16.80;49.50
29007;DHT22;16104;48.642;9.008;2023-03-23T21:49:29;16.80;49.50
29007;DHT22;16104;48.642;9.008;2023-03-23T21:54:25;16.80;49.50
29007;DHT22;16104;48.642;9.008;2023-03-23T21:59:25;16.70;50.20
29007;DHT22;16104;48.642;9.008;2023-03-23T22:04:20;16.70;49.50
29007;DHT22;16104;48.642;9.008;2023-03-23T22:09:16;16.70;49.60
29007;DHT22;16104;48.642;9.008;2023-03-23T22:14:11;16.70;49.50
29007;DHT22;16104;48.642;9.008;2023-03-23T22:19:07;16.70;49.60
29007;DHT22;16104;48.642;9.008;2023-03-23T22:24:03;16.70;49.60
29007;DHT22;16104;48.642;9.008;2023-03-23T22:28:59;16.60;49.60
29007;DHT22;16104;48.642;9.008;2023-03-23T22:33:56;16.70;49.70
29007;DHT22;16104;48.642;9.008;2023-03-23T22:38:52;16.60;49.60
29007;DHT22;16104;48.642;9.008;2023-03-23T22:43:49;16.60;49.60
29007;DHT22;16104;48.642;9.008;2023-03-23T22:48:45;16.60;49.60
29007;DHT22;16104;48.642;9.008;2023-03-23T22:53:41;16.60;49.60
29007;DHT22;16104;48.642;9.008;2023-03-23T22:58:37;16.60;49.60
29007;DHT22;16104;48.642;9.008;2023-03-23T23:03:33;16.60;49.60
29007;DHT22;16104;48.642;9.008;2023-03-23T23:08:29;16.50;49.60
29007;DHT22;16104;48.642;9.008;2023-03-23T23:13:27;16.50;50.30
29007;DHT22;16104;48.642;9.008;2023-03-23T23:18:25;16.50;50.10
29007;DHT22;16104;48.642;9.008;2023-03-23T23:23:21;16.50;50.50
29007;DHT22;16104;48.642;9.008;2023-03-23T23:28:18;16.50;50.50
29007;DHT22;16104;48.642;9.008;2023-03-23T23:33:14;16.50;50.80
29007;DHT22;16104;48.642;9.008;2023-03-23T23:38:10;16.40;51.30
29007;DHT22;16104;48.642;9.008;2023-03-23T23:43:07;16.30;51.70
29007;DHT22;16104;48.642;9.008;2023-03-23T23:48:04;16.20;51.90
29007;DHT22;16104;48.642;9.008;2023-03-23T23:53:00;16.20;52.90
29007;DHT22;16104;48.642;9.008;2023-03-23T23:57:55;16.10;52.40
